sensor_id;sensor_type;location;lat;lon;timestamp;temperature;humidity
69436;SHT31;56625;54.322;18.582;2023-04-01T00:01:12;4.96;93.39
69436;SHT31;56625;54.322;18.582;2023-04-01T00:03:42;4.84;93.16
69436;SHT31;56625;54.322;18.582;2023-04-01T00:06:14;4.70;93.10
69436;SHT31;56625;54.322;18.582;2023-04-01T00:08:45;4.64;93.29
69436;SHT31;56625;54.322;18.582;2023-04-01T00:11:14;4.57;93.33
69436;SHT31;56625;54.322;18.582;2023-04-01T00:13:43;4.50;93.29
69436;SHT31;56625;54.322;18.582;2023-04-01T00:16:12;4.48;93.38
69436;SHT31;56625;54.322;18.582;2023-04-01T00:18:49;4.51;93.52
69436;SHT31;56625;54.322;18.582;2023-04-01T00:21:19;4.54;93.43
69436;SHT31;56625;54.322;18.582;2023-04-01T00:23:49;4.59;93.39
69436;SHT31;56625;54.322;18.582;2023-04-01T00:26:18;4.59;93.48
69436;SHT31;56625;54.322;18.582;2023-04-01T00:28:49;4.59;93.36
69436;SHT31;56625;54.322;18.582;2023-04-01T00:31:18;4.60;93.42
69436;SHT31;56625;54.322;18.582;2023-04-01T00:33:48;4.62;93.39
69436;SHT31;56625;54.322;18.582;2023-04-01T00:36:17;4.60;93.25
69436;SHT31;56625;54.322;18.582;2023-04-01T00:38:51;4.61;93.23
69436;SHT31;56625;54.322;18.582;2023-04-01T00:41:19;4.56;93.13
69436;SHT31;56625;54.322;18.582;2023-04-01T00:43:49;4.52;93.08
69436;SHT31;56625;54.322;18.582;2023-04-01T00:46:18;4.50;93.11
69436;SHT31;56625;54.322;18.582;2023-04-01T00:48:48;4.48;93.09
69436;SHT31;56625;54.322;18.582;2023-04-01T00:51:22;4.48;93.26
69436;SHT31;56625;54.322;18.582;2023-04-01T00:53:55;4.45;93.32
69436;SHT31;56625;54.322;18.582;2023-04-01T00:56:32;4.41;93.34
69436;SHT31;56625;54.322;18.582;2023-04-01T00:59:14;4.36;93.40
69436;SHT31;56625;54.322;18.582;2023-04-01T01:01:49;4.34;93.48
69436;SHT31;56625;54.322;18.582;2023-04-01T01:04:26;4.35;93.48
69436;SHT31;56625;54.322;18.582;2023-04-01T01:07:03;4.37;93.46
69436;SHT31;56625;54.322;18.582;2023-04-01T01:13:36;4.42;93.35
69436;SHT31;56625;54.322;18.582;2023-04-01T01:16:30;4.48;93.34
69436;SHT31;56625;54.322;18.582;2023-04-01T01:19:10;4.51;93.30
69436;SHT31;56625;54.322;18.582;2023-04-01T01:22:05;4.57;93.21
69436;SHT31;56625;54.322;18.582;2023-04-01T01:25:04;4.64;93.27
69436;SHT31;56625;54.322;18.582;2023-04-01T01:27:47;4.67;93.11
69436;SHT31;56625;54.322;18.582;2023-04-01T01:30:39;4.72;93.12
69436;SHT31;56625;54.322;18.582;2023-04-01T01:33:24;4.73;93.03
69436;SHT31;56625;54.322;18.582;2023-04-01T01:36:08;4.77;92.95
69436;SHT31;56625;54.322;18.582;2023-04-01T01:38:41;4.79;92.79
69436;SHT31;56625;54.322;18.582;2023-04-01T01:41:09;4.81;92.73
69436;SHT31;56625;54.322;18.582;2023-04-01T01:43:43;4.82;92.61
69436;SHT31;56625;54.322;18.582;2023-04-01T01:46:17;4.84;92.60
69436;SHT31;56625;54.322;18.582;2023-04-01T01:48:50;4.85;92.53
69436;SHT31;56625;54.322;18.582;2023-04-01T01:51:20;4.87;92.53
69436;SHT31;56625;54.322;18.582;2023-04-01T01:53:50;4.88;92.42
69436;SHT31;56625;54.322;18.582;2023-04-01T01:56:18;4.87;92.27
69436;SHT31;56625;54.322;18.582;2023-04-01T01:58:51;4.83;92.07
69436;SHT31;56625;54.322;18.582;2023-04-01T02:01:28;4.79;91.99
69436;SHT31;56625;54.322;18.582;2023-04-01T02:04:01;4.76;92.02
69436;SHT31;56625;54.322;18.582;2023-04-01T02:06:32;4.73;91.90
69436;SHT31;56625;54.322;18.582;2023-04-01T02:09:06;4.73;92.01
69436;SHT31;56625;54.322;18.582;2023-04-01T02:14:36;4.73;91.99
69436;SHT31;56625;54.322;18.582;2023-04-01T02:17:19;4.73;91.99
69436;SHT31;56625;54.322;18.582;2023-04-01T02:22:29;4.70;91.79
69436;SHT31;56625;54.322;18.582;2023-04-01T02:25:12;4.65;91.62
69436;SHT31;56625;54.322;18.582;2023-04-01T02:27:45;4.63;91.60
69436;SHT31;56625;54.322;18.582;2023-04-01T02:30:15;4.61;91.62
69436;SHT31;56625;54.322;18.582;2023-04-01T02:32:45;4.60;91.63
69436;SHT31;56625;54.322;18.582;2023-04-01T02:35:15;4.61;91.62
69436;SHT31;56625;54.322;18.582;2023-04-01T02:37:45;4.63;91.69
69436;SHT31;56625;54.322;18.582;2023-04-01T02:40:17;4.64;91.61
69436;SHT31;56625;54.322;18.582;2023-04-01T02:42:45;4.66;91.60
69436;SHT31;56625;54.322;18.582;2023-04-01T02:45:14;4.67;91.54
69436;SHT31;56625;54.322;18.582;2023-04-01T02:47:42;4.70;91.49
69436;SHT31;56625;54.322;18.582;2023-04-01T02:50:10;4.72;91.49
69436;SHT31;56625;54.322;18.582;2023-04-01T02:52:38;4.72;91.38
69436;SHT31;56625;54.322;18.582;2023-04-01T02:55:06;4.74;91.30
69436;SHT31;56625;54.322;18.582;2023-04-01T02:57:34;4.77;91.26
69436;SHT31;56625;54.322;18.582;2023-04-01T03:00:02;4.81;91.16
69436;SHT31;56625;54.322;18.582;2023-04-01T03:02:31;4.84;91.04
69436;SHT31;56625;54.322;18.582;2023-04-01T03:04:59;4.84;90.89
69436;SHT31;56625;54.322;18.582;2023-04-01T03:07:27;4.84;90.84
69436;SHT31;56625;54.322;18.582;2023-04-01T03:09:54;4.83;90.78
69436;SHT31;56625;54.322;18.582;2023-04-01T03:12:22;4.83;90.72
69436;SHT31;56625;54.322;18.582;2023-04-01T03:14:50;4.85;90.77
69436;SHT31;56625;54.322;18.582;2023-04-01T03:17:18;4.86;90.72
69436;SHT31;56625;54.322;18.582;2023-04-01T03:19:46;4.90;90.73
69436;SHT31;56625;54.322;18.582;2023-04-01T03:22:13;4.90;90.59
69436;SHT31;56625;54.322;18.582;2023-04-01T03:24:42;4.91;90.49
69436;SHT31;56625;54.322;18.582;2023-04-01T03:27:09;4.93;90.53
69436;SHT31;56625;54.322;18.582;2023-04-01T03:29:37;4.93;90.44
69436;SHT31;56625;54.322;18.582;2023-04-01T03:32:05;4.94;90.30
69436;SHT31;56625;54.322;18.582;2023-04-01T03:34:33;4.94;90.30
69436;SHT31;56625;54.322;18.582;2023-04-01T03:37:03;4.96;90.35
69436;SHT31;56625;54.322;18.582;2023-04-01T03:39:31;4.97;90.23
69436;SHT31;56625;54.322;18.582;2023-04-01T03:41:59;4.95;90.12
69436;SHT31;56625;54.322;18.582;2023-04-01T03:44:42;4.92;90.09
69436;SHT31;56625;54.322;18.582;2023-04-01T03:47:10;4.91;90.05
69436;SHT31;56625;54.322;18.582;2023-04-01T03:49:37;4.91;90.09
69436;SHT31;56625;54.322;18.582;2023-04-01T03:52:08;4.91;90.10
69436;SHT31;56625;54.322;18.582;2023-04-01T03:54:38;4.93;90.20
69436;SHT31;56625;54.322;18.582;2023-04-01T03:57:06;4.95;90.20
69436;SHT31;56625;54.322;18.582;2023-04-01T03:59:34;4.97;90.21
69436;SHT31;56625;54.322;18.582;2023-04-01T04:02:02;4.99;90.16
69436;SHT31;56625;54.322;18.582;2023-04-01T04:04:30;4.99;90.06
69436;SHT31;56625;54.322;18.582;2023-04-01T04:06:59;4.97;89.96
69436;SHT31;56625;54.322;18.582;2023-04-01T04:09:29;4.98;90.00
69436;SHT31;56625;54.322;18.582;2023-04-01T04:11:59;4.98;90.00
69436;SHT31;56625;54.322;18.582;2023-04-01T04:14:29;4.97;90.00
69436;SHT31;56625;54.322;18.582;2023-04-01T04:16:57;4.96;90.07
69436;SHT31;56625;54.322;18.582;2023-04-01T04:19:25;4.95;90.15
69436;SHT31;56625;54.322;18.582;2023-04-01T04:21:53;4.94;90.11
69436;SHT31;56625;54.322;18.582;2023-04-01T04:24:22;4.94;90.17
69436;SHT31;56625;54.322;18.582;2023-04-01T04:26:50;4.96;90.20
69436;SHT31;56625;54.322;18.582;2023-04-01T04:29:18;4.98;90.26
69436;SHT31;56625;54.322;18.582;2023-04-01T04:31:46;4.97;90.20
69436;SHT31;56625;54.322;18.582;2023-04-01T04:34:14;4.97;90.20
69436;SHT31;56625;54.322;18.582;2023-04-01T04:36:42;5.00;90.37
69436;SHT31;56625;54.322;18.582;2023-04-01T04:39:10;5.03;90.42
69436;SHT31;56625;54.322;18.582;2023-04-01T04:41:38;5.04;90.35
69436;SHT31;56625;54.322;18.582;2023-04-01T04:44:06;5.05;90.24
69436;SHT31;56625;54.322;18.582;2023-04-01T04:46:34;5.05;90.28
69436;SHT31;56625;54.322;18.582;2023-04-01T04:49:05;5.06;90.38
69436;SHT31;56625;54.322;18.582;2023-04-01T04:51:34;5.08;90.48
69436;SHT31;56625;54.322;18.582;2023-04-01T04:54:03;5.11;90.46
69436;SHT31;56625;54.322;18.582;2023-04-01T04:56:32;5.11;90.39
69436;SHT31;56625;54.322;18.582;2023-04-01T04:59:00;5.13;90.44
69436;SHT31;56625;54.322;18.582;2023-04-01T05:01:28;5.15;90.40
69436;SHT31;56625;54.322;18.582;2023-04-01T05:03:56;5.16;90.40
69436;SHT31;56625;54.322;18.582;2023-04-01T05:06:24;5.19;90.48
69436;SHT31;56625;54.322;18.582;2023-04-01T05:08:56;5.19;90.49
69436;SHT31;56625;54.322;18.582;2023-04-01T05:11:25;5.22;90.60
69436;SHT31;56625;54.322;18.582;2023-04-01T05:13:53;5.23;90.58
69436;SHT31;56625;54.322;18.582;2023-04-01T05:16:21;5.22;90.58
69436;SHT31;56625;54.322;18.582;2023-04-01T05:18:49;5.23;90.70
69436;SHT31;56625;54.322;18.582;2023-04-01T05:21:17;5.22;90.96
69436;SHT31;56625;54.322;18.582;2023-04-01T05:23:45;5.19;91.16
69436;SHT31;56625;54.322;18.582;2023-04-01T05:26:13;5.15;91.17
69436;SHT31;56625;54.322;18.582;2023-04-01T05:28:42;5.14;91.20
69436;SHT31;56625;54.322;18.582;2023-04-01T05:31:10;5.15;91.22
69436;SHT31;56625;54.322;18.582;2023-04-01T05:33:38;5.16;91.34
69436;SHT31;56625;54.322;18.582;2023-04-01T05:38:42;5.14;91.46
69436;SHT31;56625;54.322;18.582;2023-04-01T05:41:13;5.12;91.52
69436;SHT31;56625;54.322;18.582;2023-04-01T05:43:42;5.09;91.57
69436;SHT31;56625;54.322;18.582;2023-04-01T05:46:10;5.08;91.52
69436;SHT31;56625;54.322;18.582;2023-04-01T05:48:38;5.05;91.75
69436;SHT31;56625;54.322;18.582;2023-04-01T05:51:11;4.99;91.84
69436;SHT31;56625;54.322;18.582;2023-04-01T05:53:42;4.93;92.04
69436;SHT31;56625;54.322;18.582;2023-04-01T05:56:10;4.89;92.26
69436;SHT31;56625;54.322;18.582;2023-04-01T05:58:38;4.83;92.42
69436;SHT31;56625;54.322;18.582;2023-04-01T06:01:08;4.77;92.61
69436;SHT31;56625;54.322;18.582;2023-04-01T06:03:43;4.76;92.76
69436;SHT31;56625;54.322;18.582;2023-04-01T06:06:15;4.78;92.71
69436;SHT31;56625;54.322;18.582;2023-04-01T06:08:52;4.76;92.81
69436;SHT31;56625;54.322;18.582;2023-04-01T06:17:25;4.75;92.78
69436;SHT31;56625;54.322;18.582;2023-04-01T06:20:03;4.77;92.84
69436;SHT31;56625;54.322;18.582;2023-04-01T06:22:51;4.79;92.87
69436;SHT31;56625;54.322;18.582;2023-04-01T06:25:43;4.77;92.80
69436;SHT31;56625;54.322;18.582;2023-04-01T06:28:41;4.75;92.92
69436;SHT31;56625;54.322;18.582;2023-04-01T06:44:07;4.51;93.53
69436;SHT31;56625;54.322;18.582;2023-04-01T06:47:13;4.46;93.55
69436;SHT31;56625;54.322;18.582;2023-04-01T06:50:16;4.39;93.55
69436;SHT31;56625;54.322;18.582;2023-04-01T06:53:28;4.37;93.75
69436;SHT31;56625;54.322;18.582;2023-04-01T06:56:06;4.37;93.77
69436;SHT31;56625;54.322;18.582;2023-04-01T06:58:48;4.40;93.79
69436;SHT31;56625;54.322;18.582;2023-04-01T07:01:24;4.40;93.73
69436;SHT31;56625;54.322;18.582;2023-04-01T07:04:02;4.43;93.63
69436;SHT31;56625;54.322;18.582;2023-04-01T07:09:18;4.47;93.65
69436;SHT31;56625;54.322;18.582;2023-04-01T07:12:00;4.51;93.55
69436;SHT31;56625;54.322;18.582;2023-04-01T07:14:39;4.56;93.50
69436;SHT31;56625;54.322;18.582;2023-04-01T07:17:14;4.61;93.44
69436;SHT31;56625;54.322;18.582;2023-04-01T07:22:59;4.57;92.83
69436;SHT31;56625;54.322;18.582;2023-04-01T07:25:35;4.59;92.90
69436;SHT31;56625;54.322;18.582;2023-04-01T07:28:13;4.61;92.86
69436;SHT31;56625;54.322;18.582;2023-04-01T07:42:01;4.64;92.31
69436;SHT31;56625;54.322;18.582;2023-04-01T07:47:43;4.69;92.03
69436;SHT31;56625;54.322;18.582;2023-04-01T07:50:28;4.67;91.72
69436;SHT31;56625;54.322;18.582;2023-04-01T07:53:11;4.66;91.71
69436;SHT31;56625;54.322;18.582;2023-04-01T07:56:13;4.66;91.66
69436;SHT31;56625;54.322;18.582;2023-04-01T08:04:57;4.57;91.39
69436;SHT31;56625;54.322;18.582;2023-04-01T08:10:50;4.47;91.33
69436;SHT31;56625;54.322;18.582;2023-04-01T08:13:42;4.49;91.75
69436;SHT31;56625;54.322;18.582;2023-04-01T08:19:58;4.54;91.85
69436;SHT31;56625;54.322;18.582;2023-04-01T08:22:16;4.55;91.80
69436;SHT31;56625;54.322;18.582;2023-04-01T08:24:55;4.58;91.88
69436;SHT31;56625;54.322;18.582;2023-04-01T08:27:41;4.59;91.76
69436;SHT31;56625;54.322;18.582;2023-04-01T08:30:17;4.63;91.74
69436;SHT31;56625;54.322;18.582;2023-04-01T08:32:57;4.61;91.45
69436;SHT31;56625;54.322;18.582;2023-04-01T08:35:36;4.60;91.28
69436;SHT31;56625;54.322;18.582;2023-04-01T08:38:15;4.54;91.00
69436;SHT31;56625;54.322;18.582;2023-04-01T08:50:45;4.50;91.66
69436;SHT31;56625;54.322;18.582;2023-04-01T08:53:51;4.50;91.43
69436;SHT31;56625;54.322;18.582;2023-04-01T08:56:39;4.45;91.25
69436;SHT31;56625;54.322;18.582;2023-04-01T09:00:06;4.41;91.38
69436;SHT31;56625;54.322;18.582;2023-04-01T09:21:34;4.36;91.21
69436;SHT31;56625;54.322;18.582;2023-04-01T09:27:26;4.35;91.40
69436;SHT31;56625;54.322;18.582;2023-04-01T09:45:52;4.48;90.78
69436;SHT31;56625;54.322;18.582;2023-04-01T09:48:03;4.55;90.70
69436;SHT31;56625;54.322;18.582;2023-04-01T09:50:51;4.56;90.30
69436;SHT31;56625;54.322;18.582;2023-04-01T09:53:28;4.57;90.11
69436;SHT31;56625;54.322;18.582;2023-04-01T10:08:11;4.49;89.98
69436;SHT31;56625;54.322;18.582;2023-04-01T10:16:54;4.40;89.71
69436;SHT31;56625;54.322;18.582;2023-04-01T10:23:06;4.29;90.21
69436;SHT31;56625;54.322;18.582;2023-04-01T10:38:27;4.18;90.70
69436;SHT31;56625;54.322;18.582;2023-04-01T10:56:32;4.38;90.38
69436;SHT31;56625;54.322;18.582;2023-04-01T11:11:16;4.24;89.79
69436;SHT31;56625;54.322;18.582;2023-04-01T11:14:24;4.19;89.74
69436;SHT31;56625;54.322;18.582;2023-04-01T11:17:40;4.17;89.77
69436;SHT31;56625;54.322;18.582;2023-04-01T11:35:25;4.04;90.02
69436;SHT31;56625;54.322;18.582;2023-04-01T11:41:43;3.99;89.94
69436;SHT31;56625;54.322;18.582;2023-04-01T11:44:23;4.05;90.15
69436;SHT31;56625;54.322;18.582;2023-04-01T11:53:04;4.10;89.44
69436;SHT31;56625;54.322;18.582;2023-04-01T12:12:48;4.12;88.86
69436;SHT31;56625;54.322;18.582;2023-04-01T12:45:49;4.04;88.00
69436;SHT31;56625;54.322;18.582;2023-04-01T12:48:39;4.02;88.48
69436;SHT31;56625;54.322;18.582;2023-04-01T13:12:14;3.75;89.00
69436;SHT31;56625;54.322;18.582;2023-04-01T13:23:49;3.62;89.26
69436;SHT31;56625;54.322;18.582;2023-04-01T13:32:50;3.55;90.20
69436;SHT31;56625;54.322;18.582;2023-04-01T13:41:25;3.47;90.36
69436;SHT31;56625;54.322;18.582;2023-04-01T13:44:30;3.48;90.66
69436;SHT31;56625;54.322;18.582;2023-04-01T13:47:24;3.53;90.62
69436;SHT31;56625;54.322;18.582;2023-04-01T13:50:23;3.53;90.51
69436;SHT31;56625;54.322;18.582;2023-04-01T14:11:33;3.41;90.49
69436;SHT31;56625;54.322;18.582;2023-04-01T14:14:42;3.37;90.60
69436;SHT31;56625;54.322;18.582;2023-04-01T14:17:41;3.41;90.85
69436;SHT31;56625;54.322;18.582;2023-04-01T14:26:30;3.39;90.99
69436;SHT31;56625;54.322;18.582;2023-04-01T14:29:32;3.37;90.85
69436;SHT31;56625;54.322;18.582;2023-04-01T14:35:14;3.33;90.72
69436;SHT31;56625;54.322;18.582;2023-04-01T14:47:15;3.33;90.55
69436;SHT31;56625;54.322;18.582;2023-04-01T14:50:18;3.36;90.44
69436;SHT31;56625;54.322;18.582;2023-04-01T14:52:59;3.36;90.30
69436;SHT31;56625;54.322;18.582;2023-04-01T14:55:55;3.35;90.28
69436;SHT31;56625;54.322;18.582;2023-04-01T14:58:51;3.34;90.23
69436;SHT31;56625;54.322;18.582;2023-04-01T15:07:18;3.34;90.47
69436;SHT31;56625;54.322;18.582;2023-04-01T15:10:41;3.31;90.37
69436;SHT31;56625;54.322;18.582;2023-04-01T15:24:49;3.36;90.73
69436;SHT31;56625;54.322;18.582;2023-04-01T15:27:51;3.34;90.29
69436;SHT31;56625;54.322;18.582;2023-04-01T15:34:04;3.32;90.02
69436;SHT31;56625;54.322;18.582;2023-04-01T15:40:36;3.27;89.98
69436;SHT31;56625;54.322;18.582;2023-04-01T15:43:20;3.28;89.93
69436;SHT31;56625;54.322;18.582;2023-04-01T15:54:47;3.32;89.75
69436;SHT31;56625;54.322;18.582;2023-04-01T16:00:45;3.28;89.05
69436;SHT31;56625;54.322;18.582;2023-04-01T16:03:33;3.25;88.80
69436;SHT31;56625;54.322;18.582;2023-04-01T16:09:13;3.26;89.15
69436;SHT31;56625;54.322;18.582;2023-04-01T16:12:16;3.27;89.10
69436;SHT31;56625;54.322;18.582;2023-04-01T16:18:30;3.30;88.94
69436;SHT31;56625;54.322;18.582;2023-04-01T16:21:46;3.30;88.74
69436;SHT31;56625;54.322;18.582;2023-04-01T16:24:43;3.32;88.71
69436;SHT31;56625;54.322;18.582;2023-04-01T16:29:53;3.34;88.63
69436;SHT31;56625;54.322;18.582;2023-04-01T16:32:49;3.35;88.58
69436;SHT31;56625;54.322;18.582;2023-04-01T16:38:25;3.33;87.92
69436;SHT31;56625;54.322;18.582;2023-04-01T16:41:29;3.31;88.04
69436;SHT31;56625;54.322;18.582;2023-04-01T16:44:17;3.31;88.11
69436;SHT31;56625;54.322;18.582;2023-04-01T16:49:36;3.28;87.78
69436;SHT31;56625;54.322;18.582;2023-04-01T16:53:09;3.27;87.94
69436;SHT31;56625;54.322;18.582;2023-04-01T16:59:14;3.29;87.81
69436;SHT31;56625;54.322;18.582;2023-04-01T17:04:43;3.29;87.62
69436;SHT31;56625;54.322;18.582;2023-04-01T17:13:57;3.26;87.28
69436;SHT31;56625;54.322;18.582;2023-04-01T17:29:31;3.14;88.07
69436;SHT31;56625;54.322;18.582;2023-04-01T17:33:37;3.15;88.41
69436;SHT31;56625;54.322;18.582;2023-04-01T17:38:45;3.17;88.42
69436;SHT31;56625;54.322;18.582;2023-04-01T17:41:35;3.18;88.23
69436;SHT31;56625;54.322;18.582;2023-04-01T17:50:20;3.16;87.84
69436;SHT31;56625;54.322;18.582;2023-04-01T18:01:38;3.11;87.67
69436;SHT31;56625;54.322;18.582;2023-04-01T18:04:14;3.11;87.65
69436;SHT31;56625;54.322;18.582;2023-04-01T18:10:10;3.15;87.80
69436;SHT31;56625;54.322;18.582;2023-04-01T18:13:11;3.14;87.64
69436;SHT31;56625;54.322;18.582;2023-04-01T18:16:17;3.16;87.48
69436;SHT31;56625;54.322;18.582;2023-04-01T18:22:41;3.15;87.33
69436;SHT31;56625;54.322;18.582;2023-04-01T18:25:24;3.17;87.52
69436;SHT31;56625;54.322;18.582;2023-04-01T18:31:03;3.20;87.52
69436;SHT31;56625;54.322;18.582;2023-04-01T18:39:14;3.23;87.15
69436;SHT31;56625;54.322;18.582;2023-04-01T18:45:01;3.24;87.05
69436;SHT31;56625;54.322;18.582;2023-04-01T18:51:00;3.27;87.09
69436;SHT31;56625;54.322;18.582;2023-04-01T18:53:40;3.25;86.91
69436;SHT31;56625;54.322;18.582;2023-04-01T18:56:28;3.27;87.16
69436;SHT31;56625;54.322;18.582;2023-04-01T18:59:03;3.28;87.21
69436;SHT31;56625;54.322;18.582;2023-04-01T19:04:12;3.25;87.10
69436;SHT31;56625;54.322;18.582;2023-04-01T19:06:56;3.26;87.22
69436;SHT31;56625;54.322;18.582;2023-04-01T19:09:45;3.25;86.90
69436;SHT31;56625;54.322;18.582;2023-04-01T19:12:20;3.25;86.61
69436;SHT31;56625;54.322;18.582;2023-04-01T19:15:52;3.24;86.63
69436;SHT31;56625;54.322;18.582;2023-04-01T19:18:55;3.26;86.84
69436;SHT31;56625;54.322;18.582;2023-04-01T19:21:42;3.28;86.70
69436;SHT31;56625;54.322;18.582;2023-04-01T19:36:02;3.30;85.84
69436;SHT31;56625;54.322;18.582;2023-04-01T19:50:39;3.27;86.26
69436;SHT31;56625;54.322;18.582;2023-04-01T19:56:22;3.23;86.25
69436;SHT31;56625;54.322;18.582;2023-04-01T19:59:01;3.22;86.33
69436;SHT31;56625;54.322;18.582;2023-04-01T20:07:28;3.08;86.44
69436;SHT31;56625;54.322;18.582;2023-04-01T20:10:17;3.07;86.63
69436;SHT31;56625;54.322;18.582;2023-04-01T20:12:56;3.04;86.71
69436;SHT31;56625;54.322;18.582;2023-04-01T20:15:36;3.02;86.85
69436;SHT31;56625;54.322;18.582;2023-04-01T20:21:27;2.99;86.72
69436;SHT31;56625;54.322;18.582;2023-04-01T20:26:41;3.00;87.02
69436;SHT31;56625;54.322;18.582;2023-04-01T20:29:24;3.00;87.20
69436;SHT31;56625;54.322;18.582;2023-04-01T20:43:57;2.93;87.49
69436;SHT31;56625;54.322;18.582;2023-04-01T20:46:46;2.92;87.83
69436;SHT31;56625;54.322;18.582;2023-04-01T20:55:02;2.88;88.19
69436;SHT31;56625;54.322;18.582;2023-04-01T21:18:32;2.64;89.83
69436;SHT31;56625;54.322;18.582;2023-04-01T21:34:10;2.44;90.29
69436;SHT31;56625;54.322;18.582;2023-04-01T21:40:24;2.47;89.84
69436;SHT31;56625;54.322;18.582;2023-04-01T21:46:34;2.52;89.68
69436;SHT31;56625;54.322;18.582;2023-04-01T21:58:37;2.66;87.16
69436;SHT31;56625;54.322;18.582;2023-04-01T22:07:17;2.76;86.33
69436;SHT31;56625;54.322;18.582;2023-04-01T22:13:38;2.77;86.47
69436;SHT31;56625;54.322;18.582;2023-04-01T22:19:20;2.77;86.41
69436;SHT31;56625;54.322;18.582;2023-04-01T22:28:21;2.68;86.73
69436;SHT31;56625;54.322;18.582;2023-04-01T22:31:00;2.68;86.71
69436;SHT31;56625;54.322;18.582;2023-04-01T22:42:44;2.63;86.60
69436;SHT31;56625;54.322;18.582;2023-04-01T22:45:33;2.63;86.89
69436;SHT31;56625;54.322;18.582;2023-04-01T22:48:35;2.62;86.94
69436;SHT31;56625;54.322;18.582;2023-04-01T22:51:17;2.57;86.98
69436;SHT31;56625;54.322;18.582;2023-04-01T22:57:03;2.48;87.51
69436;SHT31;56625;54.322;18.582;2023-04-01T22:59:40;2.42;87.90
69436;SHT31;56625;54.322;18.582;2023-04-01T23:02:30;2.36;88.29
69436;SHT31;56625;54.322;18.582;2023-04-01T23:05:09;2.32;88.48
69436;SHT31;56625;54.322;18.582;2023-04-01T23:10:52;2.30;88.71
69436;SHT31;56625;54.322;18.582;2023-04-01T23:13:27;2.25;88.86
69436;SHT31;56625;54.322;18.582;2023-04-01T23:16:01;2.25;88.85
69436;SHT31;56625;54.322;18.582;2023-04-01T23:18:34;2.26;88.97
69436;SHT31;56625;54.322;18.582;2023-04-01T23:21:21;2.24;89.07
69436;SHT31;56625;54.322;18.582;2023-04-01T23:24:28;2.26;89.16
69436;SHT31;56625;54.322;18.582;2023-04-01T23:27:03;2.29;89.06
69436;SHT31;56625;54.322;18.582;2023-04-01T23:29:35;2.34;88.96
69436;SHT31;56625;54.322;18.582;2023-04-01T23:32:13;2.38;88.67
69436;SHT31;56625;54.322;18.582;2023-04-01T23:34:49;2.43;87.74
69436;SHT31;56625;54.322;18.582;2023-04-01T23:37:20;2.49;85.79
69436;SHT31;56625;54.322;18.582;2023-04-01T23:39:54;2.57;83.20
69436;SHT31;56625;54.322;18.582;2023-04-01T23:42:27;2.65;83.41
69436;SHT31;56625;54.322;18.582;2023-04-01T23:45:00;2.70;81.46
69436;SHT31;56625;54.322;18.582;2023-04-01T23:47:38;2.76;81.26
69436;SHT31;56625;54.322;18.582;2023-04-01T23:50:12;2.81;81.01
69436;SHT31;56625;54.322;18.582;2023-04-01T23:55:31;2.94;76.78
